LFLN/SYT METAR and TAF weather

Enter ICAO airport designator
Station Type Date Time Source
LFLN METAR 2020/09/20 01:30 UTC NOAA

LFLN 200130Z AUTO 08003KT CAVOK 17/14 Q1014


Station Type Date Time Source
LFLN Decoded METAR 2020/09/20 01:30 UTC NOAA

Saint-Yan, France (LFLN) 46-25N 004-01E 244M
Sep 19, 2020 - 09:30 PM EDT / 2020.09.20 0130 UTC
Wind: from the E (080 degrees) at 3 MPH (3 KT):0
Visibility: greater than 7 mile(s):0
Temperature: 62 F (17 C)
Dew Point: 57 F (14 C)
Relative Humidity: 82%
Pressure (altimeter): 29.94 in. Hg (1014 hPa)
ob: LFLN 200130Z AUTO 08003KT CAVOK 17/14 Q1014
cycle: 1

Station Type Date Time Source
LFLN TAF UTC NOAA

Error!

Example: see airport list